sensor_id;sensor_type;location;lat;lon;timestamp;pressure;altitude;pressure_sealevel;temperature;humidity
20119;BME280;10220;42.716;23.306;2023-08-21T00:00:34;95570.19;;;22.48;100.00
20119;BME280;10220;42.716;23.306;2023-08-21T00:02:59;95570.34;;;22.86;100.00
20119;BME280;10220;42.716;23.306;2023-08-21T00:05:24;95573.81;;;22.82;100.00
20119;BME280;10220;42.716;23.306;2023-08-21T00:07:50;95571.63;;;23.08;100.00
20119;BME280;10220;42.716;23.306;2023-08-21T00:10:16;95561.09;;;22.89;100.00
20119;BME280;10220;42.716;23.306;2023-08-21T00:12:42;95561.59;;;22.96;100.00
20119;BME280;10220;42.716;23.306;2023-08-21T00:15:08;95576.41;;;23.06;100.00
20119;BME280;10220;42.716;23.306;2023-08-21T00:17:35;95541.84;;;22.68;100.00
20119;BME280;10220;42.716;23.306;2023-08-21T00:20:00;95573.00;;;23.01;100.00
20119;BME280;10220;42.716;23.306;2023-08-21T00:22:27;95576.16;;;23.03;100.00
20119;BME280;10220;42.716;23.306;2023-08-21T00:24:52;95562.78;;;22.40;100.00
20119;BME280;10220;42.716;23.306;2023-08-21T00:27:18;95577.28;;;22.57;100.00
20119;BME280;10220;42.716;23.306;2023-08-21T00:29:43;95544.50;;;22.68;100.00
20119;BME280;10220;42.716;23.306;2023-08-21T00:32:08;95563.31;;;22.47;100.00
20119;BME280;10220;42.716;23.306;2023-08-21T00:34:34;95540.84;;;22.00;100.00
20119;BME280;10220;42.716;23.306;2023-08-21T00:36:59;95556.41;;;22.11;100.00
20119;BME280;10220;42.716;23.306;2023-08-21T00:39:25;95559.06;;;22.41;100.00
20119;BME280;10220;42.716;23.306;2023-08-21T00:41:50;95553.78;;;22.46;100.00
20119;BME280;10220;42.716;23.306;2023-08-21T00:44:16;95577.00;;;22.64;100.00
20119;BME280;10220;42.716;23.306;2023-08-21T00:46:41;95565.41;;;22.45;100.00
20119;BME280;10220;42.716;23.306;2023-08-21T00:49:06;95581.53;;;22.48;100.00
20119;BME280;10220;42.716;23.306;2023-08-21T00:51:32;95554.84;;;22.15;100.00
20119;BME280;10220;42.716;23.306;2023-08-21T00:53:58;95568.06;;;22.10;100.00
20119;BME280;10220;42.716;23.306;2023-08-21T00:56:23;95578.06;;;22.13;100.00
20119;BME280;10220;42.716;23.306;2023-08-21T00:58:49;95590.72;;;22.11;100.00
20119;BME280;10220;42.716;23.306;2023-08-21T01:01:15;95591.22;;;21.79;100.00
20119;BME280;10220;42.716;23.306;2023-08-21T01:03:43;95569.34;;;21.93;100.00
20119;BME280;10220;42.716;23.306;2023-08-21T01:06:08;95578.81;;;21.84;100.00
20119;BME280;10220;42.716;23.306;2023-08-21T01:08:57;95590.72;;;21.82;100.00
20119;BME280;10220;42.716;23.306;2023-08-21T01:11:54;95588.34;;;21.90;100.00
20119;BME280;10220;42.716;23.306;2023-08-21T01:14:30;95583.59;;;22.02;100.00
20119;BME280;10220;42.716;23.306;2023-08-21T01:16:59;95583.00;;;21.55;100.00
20119;BME280;10220;42.716;23.306;2023-08-21T01:22:04;95584.16;;;22.09;100.00
20119;BME280;10220;42.716;23.306;2023-08-21T01:24:30;95591.28;;;22.18;100.00
20119;BME280;10220;42.716;23.306;2023-08-21T01:26:55;95597.09;;;22.15;100.00
20119;BME280;10220;42.716;23.306;2023-08-21T01:29:21;95583.66;;;22.32;100.00
20119;BME280;10220;42.716;23.306;2023-08-21T01:34:37;95587.03;;;21.87;100.00
20119;BME280;10220;42.716;23.306;2023-08-21T01:37:04;95584.41;;;21.97;100.00
20119;BME280;10220;42.716;23.306;2023-08-21T01:39:31;95587.28;;;21.86;100.00
20119;BME280;10220;42.716;23.306;2023-08-21T01:41:57;95601.75;;;21.64;100.00
20119;BME280;10220;42.716;23.306;2023-08-21T01:44:23;95586.91;;;21.43;100.00
20119;BME280;10220;42.716;23.306;2023-08-21T01:46:49;95586.09;;;21.37;100.00
20119;BME280;10220;42.716;23.306;2023-08-21T01:49:15;95590.31;;;21.43;100.00
20119;BME280;10220;42.716;23.306;2023-08-21T01:51:40;95598.38;;;21.78;100.00
20119;BME280;10220;42.716;23.306;2023-08-21T01:54:06;95567.69;;;21.52;100.00
20119;BME280;10220;42.716;23.306;2023-08-21T01:56:31;95579.66;;;21.94;100.00
20119;BME280;10220;42.716;23.306;2023-08-21T01:58:57;95570.13;;;21.69;100.00
20119;BME280;10220;42.716;23.306;2023-08-21T02:01:23;95590.66;;;21.62;100.00
20119;BME280;10220;42.716;23.306;2023-08-21T02:03:48;95588.03;;;21.62;100.00
20119;BME280;10220;42.716;23.306;2023-08-21T02:06:13;95585.19;;;21.93;100.00
20119;BME280;10220;42.716;23.306;2023-08-21T02:08:39;95595.47;;;21.84;100.00
20119;BME280;10220;42.716;23.306;2023-08-21T02:11:05;95599.13;;;21.74;100.00
20119;BME280;10220;42.716;23.306;2023-08-21T02:13:30;95572.66;;;21.44;100.00
20119;BME280;10220;42.716;23.306;2023-08-21T02:15:58;95574.22;;;21.35;100.00
20119;BME280;10220;42.716;23.306;2023-08-21T02:18:23;95572.53;;;21.09;100.00
20119;BME280;10220;42.716;23.306;2023-08-21T02:20:49;95599.38;;;21.01;100.00
20119;BME280;10220;42.716;23.306;2023-08-21T02:23:14;95588.72;;;20.81;100.00
20119;BME280;10220;42.716;23.306;2023-08-21T02:25:41;95592.16;;;20.82;100.00
20119;BME280;10220;42.716;23.306;2023-08-21T02:28:07;95587.78;;;20.97;100.00
20119;BME280;10220;42.716;23.306;2023-08-21T02:30:32;95584.47;;;20.75;100.00
20119;BME280;10220;42.716;23.306;2023-08-21T02:32:58;95584.56;;;20.54;100.00
20119;BME280;10220;42.716;23.306;2023-08-21T02:35:23;95590.22;;;20.67;100.00
20119;BME280;10220;42.716;23.306;2023-08-21T02:37:49;95585.31;;;20.81;100.00
20119;BME280;10220;42.716;23.306;2023-08-21T02:40:14;95580.56;;;20.42;100.00
20119;BME280;10220;42.716;23.306;2023-08-21T02:42:40;95583.22;;;20.83;100.00
20119;BME280;10220;42.716;23.306;2023-08-21T02:45:06;95595.91;;;20.55;100.00
20119;BME280;10220;42.716;23.306;2023-08-21T02:47:36;95585.25;;;20.40;100.00
20119;BME280;10220;42.716;23.306;2023-08-21T02:50:06;95580.81;;;20.40;100.00
20119;BME280;10220;42.716;23.306;2023-08-21T02:52:35;95588.97;;;20.80;100.00
20119;BME280;10220;42.716;23.306;2023-08-21T02:55:01;95563.97;;;20.46;100.00
20119;BME280;10220;42.716;23.306;2023-08-21T02:57:27;95595.44;;;20.63;100.00
20119;BME280;10220;42.716;23.306;2023-08-21T02:59:53;95576.78;;;20.69;100.00
20119;BME280;10220;42.716;23.306;2023-08-21T03:02:18;95596.53;;;21.18;100.00
20119;BME280;10220;42.716;23.306;2023-08-21T03:04:44;95597.84;;;21.15;100.00
20119;BME280;10220;42.716;23.306;2023-08-21T03:07:10;95594.50;;;20.78;100.00
20119;BME280;10220;42.716;23.306;2023-08-21T03:09:36;95589.50;;;20.77;100.00
20119;BME280;10220;42.716;23.306;2023-08-21T03:12:02;95598.03;;;20.58;100.00
20119;BME280;10220;42.716;23.306;2023-08-21T03:14:27;95601.72;;;20.98;100.00
20119;BME280;10220;42.716;23.306;2023-08-21T03:16:53;95600.66;;;20.58;100.00
20119;BME280;10220;42.716;23.306;2023-08-21T03:19:18;95611.09;;;20.74;100.00
20119;BME280;10220;42.716;23.306;2023-08-21T03:21:44;95605.84;;;20.84;100.00
20119;BME280;10220;42.716;23.306;2023-08-21T03:24:09;95584.53;;;20.44;100.00
20119;BME280;10220;42.716;23.306;2023-08-21T03:26:35;95598.84;;;20.27;100.00
20119;BME280;10220;42.716;23.306;2023-08-21T03:29:00;95582.53;;;20.25;100.00
20119;BME280;10220;42.716;23.306;2023-08-21T03:31:26;95615.91;;;20.51;100.00
20119;BME280;10220;42.716;23.306;2023-08-21T03:33:51;95587.75;;;20.20;100.00
20119;BME280;10220;42.716;23.306;2023-08-21T03:36:17;95608.13;;;20.34;100.00
20119;BME280;10220;42.716;23.306;2023-08-21T03:38:43;95615.00;;;20.35;100.00
20119;BME280;10220;42.716;23.306;2023-08-21T03:41:08;95611.31;;;20.36;100.00
20119;BME280;10220;42.716;23.306;2023-08-21T03:43:34;95609.25;;;20.43;100.00
20119;BME280;10220;42.716;23.306;2023-08-21T03:45:59;95575.53;;;20.04;100.00
20119;BME280;10220;42.716;23.306;2023-08-21T03:48:24;95608.47;;;20.11;100.00
20119;BME280;10220;42.716;23.306;2023-08-21T03:50:50;95594.91;;;20.24;100.00
20119;BME280;10220;42.716;23.306;2023-08-21T03:53:16;95617.94;;;20.07;100.00
20119;BME280;10220;42.716;23.306;2023-08-21T03:55:41;95600.41;;;20.59;100.00
20119;BME280;10220;42.716;23.306;2023-08-21T03:58:07;95610.84;;;20.44;100.00
20119;BME280;10220;42.716;23.306;2023-08-21T04:00:32;95614.06;;;20.87;100.00
20119;BME280;10220;42.716;23.306;2023-08-21T04:02:58;95610.84;;;20.44;100.00
20119;BME280;10220;42.716;23.306;2023-08-21T04:05:24;95625.13;;;20.84;100.00
20119;BME280;10220;42.716;23.306;2023-08-21T04:07:49;95614.84;;;20.83;100.00
20119;BME280;10220;42.716;23.306;2023-08-21T04:10:15;95601.97;;;20.91;100.00
20119;BME280;10220;42.716;23.306;2023-08-21T04:12:41;95627.03;;;20.99;100.00
20119;BME280;10220;42.716;23.306;2023-08-21T04:15:07;95605.16;;;20.98;100.00
20119;BME280;10220;42.716;23.306;2023-08-21T04:17:33;95614.94;;;21.03;100.00
20119;BME280;10220;42.716;23.306;2023-08-21T04:19:59;95611.00;;;21.05;100.00
20119;BME280;10220;42.716;23.306;2023-08-21T04:22:24;95629.53;;;21.25;100.00
20119;BME280;10220;42.716;23.306;2023-08-21T04:24:49;95633.91;;;21.51;100.00
20119;BME280;10220;42.716;23.306;2023-08-21T04:27:15;95618.53;;;21.43;100.00
20119;BME280;10220;42.716;23.306;2023-08-21T04:29:40;95634.72;;;21.61;100.00
20119;BME280;10220;42.716;23.306;2023-08-21T04:32:06;95637.66;;;21.14;100.00
20119;BME280;10220;42.716;23.306;2023-08-21T04:34:35;95639.84;;;21.31;100.00
20119;BME280;10220;42.716;23.306;2023-08-21T04:37:00;95631.31;;;21.71;100.00
20119;BME280;10220;42.716;23.306;2023-08-21T04:39:26;95630.28;;;21.86;100.00
20119;BME280;10220;42.716;23.306;2023-08-21T04:41:51;95626.91;;;21.96;100.00
20119;BME280;10220;42.716;23.306;2023-08-21T04:44:17;95639.09;;;22.27;100.00
20119;BME280;10220;42.716;23.306;2023-08-21T04:46:43;95634.09;;;22.55;100.00
20119;BME280;10220;42.716;23.306;2023-08-21T04:49:08;95646.75;;;22.23;100.00
20119;BME280;10220;42.716;23.306;2023-08-21T04:51:34;95644.13;;;22.38;100.00
20119;BME280;10220;42.716;23.306;2023-08-21T04:53:59;95640.69;;;22.67;100.00
20119;BME280;10220;42.716;23.306;2023-08-21T04:56:25;95645.19;;;22.37;100.00
20119;BME280;10220;42.716;23.306;2023-08-21T04:58:52;95646.97;;;22.02;100.00
20119;BME280;10220;42.716;23.306;2023-08-21T05:01:18;95660.19;;;22.17;100.00
20119;BME280;10220;42.716;23.306;2023-08-21T05:03:43;95654.09;;;22.16;100.00
20119;BME280;10220;42.716;23.306;2023-08-21T05:06:09;95656.00;;;22.36;100.00
20119;BME280;10220;42.716;23.306;2023-08-21T05:08:34;95624.59;;;22.44;100.00
20119;BME280;10220;42.716;23.306;2023-08-21T05:11:00;95643.59;;;22.91;100.00
20119;BME280;10220;42.716;23.306;2023-08-21T05:13:26;95654.16;;;23.01;100.00
20119;BME280;10220;42.716;23.306;2023-08-21T05:15:56;95644.63;;;23.00;100.00
20119;BME280;10220;42.716;23.306;2023-08-21T05:18:23;95657.53;;;23.31;100.00
20119;BME280;10220;42.716;23.306;2023-08-21T05:20:50;95668.16;;;23.11;100.00
20119;BME280;10220;42.716;23.306;2023-08-21T05:23:15;95668.97;;;22.87;100.00
20119;BME280;10220;42.716;23.306;2023-08-21T05:25:43;95662.06;;;22.96;100.00
20119;BME280;10220;42.716;23.306;2023-08-21T05:28:08;95640.19;;;22.50;100.00
20119;BME280;10220;42.716;23.306;2023-08-21T05:30:38;95663.13;;;22.45;100.00
20119;BME280;10220;42.716;23.306;2023-08-21T05:33:03;95654.97;;;22.37;100.00
20119;BME280;10220;42.716;23.306;2023-08-21T05:35:38;95664.19;;;22.29;100.00
20119;BME280;10220;42.716;23.306;2023-08-21T05:38:04;95646.47;;;22.20;100.00
20119;BME280;10220;42.716;23.306;2023-08-21T05:40:29;95644.34;;;22.12;100.00
20119;BME280;10220;42.716;23.306;2023-08-21T05:42:55;95653.50;;;21.80;100.00
20119;BME280;10220;42.716;23.306;2023-08-21T05:45:20;95641.66;;;21.87;100.00
20119;BME280;10220;42.716;23.306;2023-08-21T05:47:46;95651.50;;;22.41;100.00
20119;BME280;10220;42.716;23.306;2023-08-21T05:50:11;95648.88;;;22.31;100.00
20119;BME280;10220;42.716;23.306;2023-08-21T05:52:36;95652.03;;;22.33;100.00
20119;BME280;10220;42.716;23.306;2023-08-21T05:55:02;95635.13;;;22.29;100.00
20119;BME280;10220;42.716;23.306;2023-08-21T05:57:28;95644.66;;;22.55;100.00
20119;BME280;10220;42.716;23.306;2023-08-21T05:59:53;95629.59;;;22.41;100.00
20119;BME280;10220;42.716;23.306;2023-08-21T06:02:18;95648.09;;;22.75;100.00
20119;BME280;10220;42.716;23.306;2023-08-21T06:04:45;95643.81;;;22.89;100.00
20119;BME280;10220;42.716;23.306;2023-08-21T06:07:10;95652.56;;;22.90;100.00
20119;BME280;10220;42.716;23.306;2023-08-21T06:09:36;95627.97;;;23.04;100.00
20119;BME280;10220;42.716;23.306;2023-08-21T06:12:03;95643.50;;;23.25;100.00
20119;BME280;10220;42.716;23.306;2023-08-21T06:14:29;95654.25;;;23.54;100.00
20119;BME280;10220;42.716;23.306;2023-08-21T06:16:59;95655.34;;;23.48;100.00
20119;BME280;10220;42.716;23.306;2023-08-21T06:19:25;95659.19;;;23.85;100.00
20119;BME280;10220;42.716;23.306;2023-08-21T06:21:51;95660.72;;;23.96;100.00
20119;BME280;10220;42.716;23.306;2023-08-21T06:24:16;95632.69;;;23.90;100.00
20119;BME280;10220;42.716;23.306;2023-08-21T06:26:42;95656.31;;;24.24;100.00
20119;BME280;10220;42.716;23.306;2023-08-21T06:29:07;95658.31;;;24.42;100.00
20119;BME280;10220;42.716;23.306;2023-08-21T06:31:33;95640.53;;;24.76;99.88
20119;BME280;10220;42.716;23.306;2023-08-21T06:33:58;95657.28;;;25.05;97.66
20119;BME280;10220;42.716;23.306;2023-08-21T06:36:23;95649.84;;;25.02;97.56
20119;BME280;10220;42.716;23.306;2023-08-21T06:38:49;95654.59;;;24.77;100.00
20119;BME280;10220;42.716;23.306;2023-08-21T06:41:14;95659.25;;;24.89;100.00
20119;BME280;10220;42.716;23.306;2023-08-21T06:43:40;95659.44;;;24.98;100.00
20119;BME280;10220;42.716;23.306;2023-08-21T06:46:06;95671.13;;;25.25;95.90
20119;BME280;10220;42.716;23.306;2023-08-21T06:48:32;95653.41;;;25.44;95.61
20119;BME280;10220;42.716;23.306;2023-08-21T06:50:57;95665.09;;;25.66;93.15
20119;BME280;10220;42.716;23.306;2023-08-21T06:53:22;95659.25;;;25.64;95.04
20119;BME280;10220;42.716;23.306;2023-08-21T06:55:48;95658.94;;;26.12;88.29
20119;BME280;10220;42.716;23.306;2023-08-21T06:58:13;95649.59;;;26.15;87.03
20119;BME280;10220;42.716;23.306;2023-08-21T07:00:39;95647.22;;;26.32;88.44
20119;BME280;10220;42.716;23.306;2023-08-21T07:03:04;95656.31;;;26.49;86.12
20119;BME280;10220;42.716;23.306;2023-08-21T07:05:33;95652.91;;;26.44;86.58
20119;BME280;10220;42.716;23.306;2023-08-21T07:07:58;95652.34;;;26.28;86.35
20119;BME280;10220;42.716;23.306;2023-08-21T07:10:24;95660.19;;;26.38;88.65
20119;BME280;10220;42.716;23.306;2023-08-21T07:12:49;95640.63;;;26.79;85.02
20119;BME280;10220;42.716;23.306;2023-08-21T07:15:15;95645.75;;;27.08;83.18
20119;BME280;10220;42.716;23.306;2023-08-21T07:17:41;95643.22;;;27.29;78.62
20119;BME280;10220;42.716;23.306;2023-08-21T07:20:07;95650.31;;;27.34;81.98
20119;BME280;10220;42.716;23.306;2023-08-21T07:22:32;95649.94;;;27.54;80.32
20119;BME280;10220;42.716;23.306;2023-08-21T07:24:58;95647.00;;;27.82;78.52
20119;BME280;10220;42.716;23.306;2023-08-21T07:27:25;95631.38;;;28.02;76.06
20119;BME280;10220;42.716;23.306;2023-08-21T07:29:51;95638.44;;;28.20;75.78
20119;BME280;10220;42.716;23.306;2023-08-21T07:32:16;95617.50;;;28.14;73.73
20119;BME280;10220;42.716;23.306;2023-08-21T07:34:42;95647.84;;;28.75;70.91
20119;BME280;10220;42.716;23.306;2023-08-21T07:37:08;95640.91;;;28.96;70.22
20119;BME280;10220;42.716;23.306;2023-08-21T07:39:34;95627.56;;;28.52;72.63
20119;BME280;10220;42.716;23.306;2023-08-21T07:41:59;95642.25;;;28.63;72.85
20119;BME280;10220;42.716;23.306;2023-08-21T07:44:26;95628.19;;;28.93;66.24
20119;BME280;10220;42.716;23.306;2023-08-21T07:46:51;95642.75;;;28.65;67.77
20119;BME280;10220;42.716;23.306;2023-08-21T07:49:17;95634.13;;;28.68;68.48
20119;BME280;10220;42.716;23.306;2023-08-21T07:51:42;95638.75;;;29.06;65.98
20119;BME280;10220;42.716;23.306;2023-08-21T07:54:08;95630.16;;;29.09;63.75
20119;BME280;10220;42.716;23.306;2023-08-21T07:56:33;95622.19;;;29.17;65.17
20119;BME280;10220;42.716;23.306;2023-08-21T07:59:01;95642.09;;;29.80;61.90
20119;BME280;10220;42.716;23.306;2023-08-21T08:01:26;95632.28;;;29.59;61.95
20119;BME280;10220;42.716;23.306;2023-08-21T08:03:52;95632.00;;;29.69;60.75
20119;BME280;10220;42.716;23.306;2023-08-21T08:06:17;95633.28;;;29.80;62.15
20119;BME280;10220;42.716;23.306;2023-08-21T08:08:44;95627.78;;;29.85;62.45
20119;BME280;10220;42.716;23.306;2023-08-21T08:11:09;95597.38;;;29.56;62.35
20119;BME280;10220;42.716;23.306;2023-08-21T08:13:34;95616.50;;;29.88;61.78
20119;BME280;10220;42.716;23.306;2023-08-21T08:16:00;95614.81;;;30.17;58.92
20119;BME280;10220;42.716;23.306;2023-08-21T08:18:26;95612.31;;;30.21;58.61
20119;BME280;10220;42.716;23.306;2023-08-21T08:20:51;95618.63;;;30.41;56.75
20119;BME280;10220;42.716;23.306;2023-08-21T08:23:18;95611.19;;;30.55;56.99
20119;BME280;10220;42.716;23.306;2023-08-21T08:25:44;95609.31;;;30.39;57.98
20119;BME280;10220;42.716;23.306;2023-08-21T08:28:09;95600.34;;;30.69;57.35
20119;BME280;10220;42.716;23.306;2023-08-21T08:30:37;95609.88;;;30.87;57.01
20119;BME280;10220;42.716;23.306;2023-08-21T08:33:02;95584.38;;;30.97;57.23
20119;BME280;10220;42.716;23.306;2023-08-21T08:35:28;95600.28;;;31.02;56.36
20119;BME280;10220;42.716;23.306;2023-08-21T08:37:53;95587.66;;;31.11;56.41
20119;BME280;10220;42.716;23.306;2023-08-21T08:40:19;95595.19;;;31.63;53.89
20119;BME280;10220;42.716;23.306;2023-08-21T08:42:44;95595.78;;;32.18;51.88
20119;BME280;10220;42.716;23.306;2023-08-21T08:45:12;95575.03;;;32.07;51.08
20119;BME280;10220;42.716;23.306;2023-08-21T08:47:39;95579.44;;;31.82;51.84
20119;BME280;10220;42.716;23.306;2023-08-21T08:50:07;95592.13;;;32.22;51.65
20119;BME280;10220;42.716;23.306;2023-08-21T08:52:38;95592.69;;;32.28;49.32
20119;BME280;10220;42.716;23.306;2023-08-21T08:55:04;95579.47;;;32.64;48.88
20119;BME280;10220;42.716;23.306;2023-08-21T08:57:32;95577.91;;;32.63;48.92
20119;BME280;10220;42.716;23.306;2023-08-21T08:59:57;95594.06;;;32.54;49.14
20119;BME280;10220;42.716;23.306;2023-08-21T09:02:25;95581.38;;;32.22;50.14
20119;BME280;10220;42.716;23.306;2023-08-21T09:04:51;95573.13;;;32.27;50.83
20119;BME280;10220;42.716;23.306;2023-08-21T09:07:17;95579.47;;;32.23;50.25
20119;BME280;10220;42.716;23.306;2023-08-21T09:09:46;95582.94;;;31.46;51.11
20119;BME280;10220;42.716;23.306;2023-08-21T09:12:13;95579.16;;;32.04;50.60
20119;BME280;10220;42.716;23.306;2023-08-21T09:14:40;95567.97;;;32.22;50.07
20119;BME280;10220;42.716;23.306;2023-08-21T09:17:06;95578.13;;;32.37;49.30
20119;BME280;10220;42.716;23.306;2023-08-21T09:19:31;95573.97;;;32.60;47.92
20119;BME280;10220;42.716;23.306;2023-08-21T09:21:57;95556.53;;;32.46;47.00
20119;BME280;10220;42.716;23.306;2023-08-21T09:24:23;95560.19;;;32.94;46.47
20119;BME280;10220;42.716;23.306;2023-08-21T09:26:49;95551.69;;;32.92;44.17
20119;BME280;10220;42.716;23.306;2023-08-21T09:29:15;95565.25;;;32.63;43.95
20119;BME280;10220;42.716;23.306;2023-08-21T09:31:40;95576.41;;;32.85;45.68
20119;BME280;10220;42.716;23.306;2023-08-21T09:34:05;95568.00;;;32.34;45.80
20119;BME280;10220;42.716;23.306;2023-08-21T09:36:32;95567.63;;;32.44;45.37
20119;BME280;10220;42.716;23.306;2023-08-21T09:38:57;95559.22;;;32.46;46.06
20119;BME280;10220;42.716;23.306;2023-08-21T09:41:23;95556.53;;;32.66;44.49
20119;BME280;10220;42.716;23.306;2023-08-21T09:43:50;95549.50;;;32.73;44.26
20119;BME280;10220;42.716;23.306;2023-08-21T09:46:16;95555.66;;;32.74;44.25
20119;BME280;10220;42.716;23.306;2023-08-21T09:48:45;95555.81;;;32.89;43.72
20119;BME280;10220;42.716;23.306;2023-08-21T09:51:11;95542.09;;;33.15;44.40
20119;BME280;10220;42.716;23.306;2023-08-21T09:53:37;95538.63;;;33.38;42.96
20119;BME280;10220;42.716;23.306;2023-08-21T09:56:05;95540.09;;;33.59;42.93
20119;BME280;10220;42.716;23.306;2023-08-21T09:58:30;95538.41;;;33.43;43.29
20119;BME280;10220;42.716;23.306;2023-08-21T10:00:57;95545.06;;;33.57;42.79
20119;BME280;10220;42.716;23.306;2023-08-21T10:03:23;95527.03;;;33.97;42.23
20119;BME280;10220;42.716;23.306;2023-08-21T10:05:49;95526.84;;;33.90;41.88
20119;BME280;10220;42.716;23.306;2023-08-21T10:08:25;95538.38;;;33.91;41.34
20119;BME280;10220;42.716;23.306;2023-08-21T10:10:53;95530.50;;;33.58;42.59
20119;BME280;10220;42.716;23.306;2023-08-21T10:13:19;95532.47;;;33.73;42.68
20119;BME280;10220;42.716;23.306;2023-08-21T10:15:45;95516.66;;;33.84;42.18
20119;BME280;10220;42.716;23.306;2023-08-21T10:18:25;95520.66;;;34.01;41.62
20119;BME280;10220;42.716;23.306;2023-08-21T10:20:54;95512.88;;;33.73;41.83
20119;BME280;10220;42.716;23.306;2023-08-21T10:23:29;95521.25;;;33.83;41.97
20119;BME280;10220;42.716;23.306;2023-08-21T10:25:56;95515.78;;;33.68;41.14
20119;BME280;10220;42.716;23.306;2023-08-21T10:28:22;95517.09;;;33.86;40.89
20119;BME280;10220;42.716;23.306;2023-08-21T10:30:48;95503.31;;;33.87;40.72
20119;BME280;10220;42.716;23.306;2023-08-21T10:33:14;95509.75;;;33.59;41.55
20119;BME280;10220;42.716;23.306;2023-08-21T10:35:39;95497.19;;;33.51;41.29
20119;BME280;10220;42.716;23.306;2023-08-21T10:38:15;95497.81;;;33.84;40.36
20119;BME280;10220;42.716;23.306;2023-08-21T10:41:08;95490.72;;;34.03;40.42
20119;BME280;10220;42.716;23.306;2023-08-21T10:46:02;95486.56;;;33.93;40.58
20119;BME280;10220;42.716;23.306;2023-08-21T10:48:27;95486.63;;;33.82;40.41
20119;BME280;10220;42.716;23.306;2023-08-21T10:50:54;95491.72;;;33.87;40.05
20119;BME280;10220;42.716;23.306;2023-08-21T10:53:20;95463.16;;;33.82;40.46
20119;BME280;10220;42.716;23.306;2023-08-21T10:55:55;95468.94;;;34.08;38.78
20119;BME280;10220;42.716;23.306;2023-08-21T10:58:21;95477.44;;;34.10;38.89
20119;BME280;10220;42.716;23.306;2023-08-21T11:00:46;95474.47;;;33.88;38.44
20119;BME280;10220;42.716;23.306;2023-08-21T11:03:12;95472.00;;;33.83;38.41
20119;BME280;10220;42.716;23.306;2023-08-21T11:05:37;95464.34;;;33.96;38.02
20119;BME280;10220;42.716;23.306;2023-08-21T11:08:03;95475.22;;;34.12;36.59
20119;BME280;10220;42.716;23.306;2023-08-21T11:10:30;95471.47;;;34.16;36.92
20119;BME280;10220;42.716;23.306;2023-08-21T11:12:58;95468.22;;;34.38;37.03
20119;BME280;10220;42.716;23.306;2023-08-21T11:15:28;95470.94;;;34.38;36.54
20119;BME280;10220;42.716;23.306;2023-08-21T11:17:59;95464.38;;;34.51;36.40
20119;BME280;10220;42.716;23.306;2023-08-21T11:20:30;95452.66;;;34.32;37.01
20119;BME280;10220;42.716;23.306;2023-08-21T11:23:00;95462.69;;;34.47;36.95
20119;BME280;10220;42.716;23.306;2023-08-21T11:25:30;95468.53;;;34.21;35.88
20119;BME280;10220;42.716;23.306;2023-08-21T11:27:56;95451.38;;;34.26;36.41
20119;BME280;10220;42.716;23.306;2023-08-21T11:30:22;95452.47;;;34.52;36.17
20119;BME280;10220;42.716;23.306;2023-08-21T11:32:49;95445.19;;;34.68;35.74
20119;BME280;10220;42.716;23.306;2023-08-21T11:35:16;95441.38;;;34.69;36.09
20119;BME280;10220;42.716;23.306;2023-08-21T11:37:45;95444.06;;;35.00;36.32
20119;BME280;10220;42.716;23.306;2023-08-21T11:40:11;95453.53;;;34.94;35.48
20119;BME280;10220;42.716;23.306;2023-08-21T11:42:38;95430.16;;;34.82;35.25
20119;BME280;10220;42.716;23.306;2023-08-21T11:45:04;95428.59;;;34.66;35.69
20119;BME280;10220;42.716;23.306;2023-08-21T11:47:34;95437.00;;;35.26;35.51
20119;BME280;10220;42.716;23.306;2023-08-21T11:50:05;95438.28;;;35.47;35.22
20119;BME280;10220;42.716;23.306;2023-08-21T11:52:31;95428.78;;;35.72;34.50
20119;BME280;10220;42.716;23.306;2023-08-21T11:55:11;95424.88;;;35.51;33.61
20119;BME280;10220;42.716;23.306;2023-08-21T12:00:30;95436.84;;;34.73;35.26
20119;BME280;10220;42.716;23.306;2023-08-21T12:02:59;95436.22;;;34.64;35.69
20119;BME280;10220;42.716;23.306;2023-08-21T12:05:26;95428.06;;;34.91;34.85
20119;BME280;10220;42.716;23.306;2023-08-21T12:07:52;95433.91;;;34.93;34.75
20119;BME280;10220;42.716;23.306;2023-08-21T12:10:28;95427.44;;;34.52;34.27
20119;BME280;10220;42.716;23.306;2023-08-21T12:12:55;95426.53;;;33.78;35.85
20119;BME280;10220;42.716;23.306;2023-08-21T12:15:20;95431.28;;;33.96;35.82
20119;BME280;10220;42.716;23.306;2023-08-21T12:17:46;95427.78;;;33.95;34.96
20119;BME280;10220;42.716;23.306;2023-08-21T12:20:12;95423.22;;;33.96;35.32
20119;BME280;10220;42.716;23.306;2023-08-21T12:22:38;95418.50;;;33.93;35.67
20119;BME280;10220;42.716;23.306;2023-08-21T12:25:04;95420.63;;;33.99;36.08
20119;BME280;10220;42.716;23.306;2023-08-21T12:27:30;95418.94;;;33.95;36.68
20119;BME280;10220;42.716;23.306;2023-08-21T12:29:56;95411.59;;;34.07;36.56
20119;BME280;10220;42.716;23.306;2023-08-21T12:32:21;95414.78;;;34.25;36.86
20119;BME280;10220;42.716;23.306;2023-08-21T12:34:47;95414.06;;;34.12;36.63
20119;BME280;10220;42.716;23.306;2023-08-21T12:37:13;95413.09;;;34.05;37.00
20119;BME280;10220;42.716;23.306;2023-08-21T12:39:38;95417.47;;;33.97;36.65
20119;BME280;10220;42.716;23.306;2023-08-21T12:42:04;95416.97;;;33.80;36.41
20119;BME280;10220;42.716;23.306;2023-08-21T12:44:30;95397.66;;;33.63;36.50
20119;BME280;10220;42.716;23.306;2023-08-21T12:46:55;95387.47;;;33.56;37.14
20119;BME280;10220;42.716;23.306;2023-08-21T12:49:21;95398.75;;;33.62;36.70
20119;BME280;10220;42.716;23.306;2023-08-21T12:51:46;95396.41;;;33.60;36.78